createdAt,value
2019-03-01T00:01:57.728Z,99.03
2019-03-01T00:05:36.634Z,88.00
2019-03-01T00:09:32.073Z,95.07
2019-03-01T00:12:49.738Z,87.67
2019-03-01T00:16:12.045Z,87.10
2019-03-01T00:19:53.184Z,103.63
2019-03-01T00:23:50.355Z,89.83
2019-03-01T00:27:52.039Z,85.80
2019-03-01T00:31:30.999Z,94.37
2019-03-01T00:35:29.575Z,82.13
2019-03-01T00:39:00.373Z,79.23
2019-03-01T00:42:36.857Z,78.10
2019-03-01T00:45:42.163Z,85.17
2019-03-01T00:48:47.535Z,73.73
2019-03-01T00:51:52.810Z,76.73
2019-03-01T00:54:58.083Z,72.63
2019-03-01T00:58:03.540Z,63.90
2019-03-01T01:01:08.838Z,74.27
2019-03-01T01:04:18.973Z,71.03
2019-03-01T01:07:21.145Z,66.83
2019-03-01T01:10:28.851Z,62.50
2019-03-01T01:13:34.048Z,62.73
2019-03-01T01:16:39.335Z,65.33
2019-03-01T01:19:44.573Z,65.60
2019-03-01T01:22:49.874Z,64.37
2019-03-01T01:25:55.138Z,71.80
2019-03-01T01:29:00.430Z,70.97
2019-03-01T01:32:05.850Z,79.27
2019-03-01T01:35:11.166Z,65.43
2019-03-01T01:38:16.405Z,72.70
2019-03-01T01:41:21.733Z,71.20
2019-03-01T01:44:27.010Z,74.87
2019-03-01T01:47:32.225Z,76.97
2019-03-01T01:50:37.550Z,72.43
2019-03-01T01:53:42.819Z,66.30
2019-03-01T01:56:48.201Z,69.87
2019-03-01T01:59:53.439Z,64.30
2019-03-01T02:02:58.800Z,69.10
2019-03-01T02:06:04.058Z,76.63
2019-03-01T02:09:24.578Z,65.57
2019-03-01T02:12:30.028Z,76.10
2019-03-01T02:15:35.310Z,66.87
2019-03-01T02:18:40.590Z,71.20
2019-03-01T02:21:45.864Z,60.80
2019-03-01T02:24:51.378Z,70.53
2019-03-01T02:27:56.629Z,64.73
2019-03-01T02:31:04.258Z,65.90
2019-03-01T02:34:09.511Z,60.07
2019-03-01T02:37:17.074Z,67.80
2019-03-01T02:40:22.321Z,64.23
2019-03-01T02:43:27.630Z,64.73
2019-03-01T02:46:32.907Z,59.80
2019-03-01T02:49:38.212Z,66.77
2019-03-01T02:52:43.575Z,57.40
2019-03-01T02:55:48.819Z,65.83
2019-03-01T02:58:54.121Z,67.13
2019-03-01T03:01:59.394Z,71.03
2019-03-01T03:05:05.905Z,68.03
2019-03-01T03:08:11.212Z,61.33
2019-03-01T03:11:16.478Z,68.33
2019-03-01T03:14:21.825Z,65.00
2019-03-01T03:17:27.085Z,64.70
2019-03-01T03:20:32.334Z,66.73
2019-03-01T03:23:37.554Z,67.37
2019-03-01T03:26:42.804Z,66.50
2019-03-01T03:29:50.196Z,73.50
2019-03-01T03:32:56.159Z,65.33
2019-03-01T03:36:01.449Z,75.90
2019-03-01T03:39:08.985Z,66.60
2019-03-01T03:42:14.321Z,73.83
2019-03-01T03:45:19.745Z,74.10
2019-03-01T03:48:25.890Z,72.03
2019-03-01T03:51:31.153Z,69.00
2019-03-01T03:54:36.399Z,79.63
2019-03-01T03:57:41.792Z,75.60
2019-03-01T04:00:47.007Z,77.20
2019-03-01T04:03:52.262Z,72.20
2019-03-01T04:06:57.532Z,71.73
2019-03-01T04:10:02.844Z,71.97
2019-03-01T04:13:09.105Z,72.07
2019-03-01T04:16:14.347Z,74.57
2019-03-01T04:19:19.572Z,68.00
2019-03-01T04:22:24.948Z,77.67
2019-03-01T04:25:30.421Z,92.50
2019-03-01T04:28:35.738Z,84.27
2019-03-01T04:31:41.030Z,86.03
2019-03-01T04:34:47.457Z,82.20
2019-03-01T04:37:52.736Z,77.10
2019-03-01T04:40:57.988Z,75.80
2019-03-01T04:44:03.197Z,84.60
2019-03-01T04:47:08.785Z,65.80
2019-03-01T04:50:14.087Z,76.53
2019-03-01T04:53:19.364Z,74.47
2019-03-01T04:56:24.659Z,82.27
2019-03-01T04:59:30.938Z,80.27
2019-03-01T05:02:36.297Z,82.23
2019-03-01T05:05:41.573Z,85.60
2019-03-01T05:08:46.875Z,76.33
2019-03-01T05:11:52.159Z,80.83
2019-03-01T05:14:57.427Z,78.77
2019-03-01T05:18:02.712Z,82.93
2019-03-01T05:21:07.975Z,83.27
2019-03-01T05:24:13.226Z,77.37
2019-03-01T05:27:18.597Z,80.63
2019-03-01T05:30:23.844Z,83.40
2019-03-01T05:33:29.132Z,94.17
2019-03-01T05:36:34.464Z,85.73
2019-03-01T05:39:41.060Z,90.10
2019-03-01T05:42:46.413Z,89.00
2019-03-01T05:45:51.673Z,89.27
2019-03-01T05:48:57.313Z,90.17
2019-03-01T05:52:02.714Z,87.77
2019-03-01T05:55:08.216Z,95.53
2019-03-01T05:58:33.378Z,91.10
2019-03-01T06:01:43.898Z,90.70
2019-03-01T06:04:52.839Z,87.77
2019-03-01T06:08:51.799Z,82.70
2019-03-01T06:12:29.928Z,85.00
2019-03-01T06:16:22.216Z,87.83
2019-03-01T06:20:11.153Z,81.10
2019-03-01T06:23:38.364Z,81.30
2019-03-01T06:27:29.633Z,86.50
2019-03-01T06:31:15.979Z,78.80
2019-03-01T06:35:08.267Z,81.80
2019-03-01T06:39:33.606Z,76.80
2019-03-01T06:43:15.001Z,59.57
2019-03-01T06:46:48.642Z,49.57
2019-03-01T06:50:09.654Z,53.23
2019-03-01T06:53:15.998Z,49.27
2019-03-01T06:56:21.319Z,45.83
2019-03-01T06:59:26.609Z,44.97
2019-03-01T07:02:40.226Z,46.70
2019-03-01T07:05:45.669Z,41.87
2019-03-01T07:08:51.107Z,41.17
2019-03-01T07:11:56.487Z,41.40
2019-03-01T07:15:01.794Z,39.93
2019-03-01T07:18:08.076Z,44.07
2019-03-01T07:21:13.345Z,39.73
2019-03-01T07:24:18.706Z,48.37
2019-03-01T07:27:24.042Z,45.80
2019-03-01T07:30:48.493Z,45.73
2019-03-01T07:34:05.737Z,45.20
2019-03-01T07:37:13.109Z,47.97
2019-03-01T07:40:18.425Z,44.93
2019-03-01T07:43:23.696Z,47.57
2019-03-01T07:46:28.981Z,44.87
2019-03-01T07:49:34.246Z,46.90
2019-03-01T07:52:39.563Z,46.37
2019-03-01T07:55:46.547Z,43.80
2019-03-01T07:58:51.884Z,46.30
2019-03-01T08:01:57.163Z,48.20
2019-03-01T08:05:04.214Z,46.77
2019-03-01T08:08:09.384Z,49.87
2019-03-01T08:11:14.666Z,46.47
2019-03-01T08:14:20.003Z,52.37
2019-03-01T08:17:27.645Z,50.83
2019-03-01T08:20:33.819Z,54.17
2019-03-01T08:23:39.479Z,49.60
2019-03-01T08:26:44.784Z,52.40
2019-03-01T08:29:52.317Z,56.07
2019-03-01T08:32:57.620Z,53.60
2019-03-01T08:36:05.844Z,53.63
2019-03-01T08:39:09.929Z,53.50
2019-03-01T08:42:15.241Z,52.00
2019-03-01T08:45:20.522Z,51.50
2019-03-01T08:48:25.737Z,53.90
2019-03-01T08:51:31.177Z,57.67
2019-03-01T08:54:36.426Z,50.83
2019-03-01T08:57:44.478Z,54.47
2019-03-01T09:00:48.793Z,55.30
2019-03-01T09:04:01.791Z,79.47
2019-03-01T09:07:07.167Z,82.07
2019-03-01T09:10:14.188Z,90.07
2019-03-01T09:13:19.423Z,86.50
2019-03-01T09:16:24.658Z,99.97
2019-03-01T09:19:29.938Z,98.13
2019-03-01T09:22:35.158Z,91.13
2019-03-01T09:25:41.384Z,92.80
2019-03-01T09:28:47.496Z,93.97
2019-03-01T09:31:54.282Z,90.40
2019-03-01T09:35:26.436Z,98.60
2019-03-01T09:38:31.885Z,107.50
2019-03-01T09:41:40.602Z,114.00
2019-03-01T09:44:44.171Z,128.33
2019-03-01T09:47:49.486Z,137.57
2019-03-01T09:50:56.099Z,170.50
2019-03-01T09:54:01.372Z,165.13
2019-03-01T09:57:06.718Z,157.97
2019-03-01T10:00:13.367Z,171.60
2019-03-01T10:03:18.619Z,185.87
2019-03-01T10:06:23.843Z,166.23
2019-03-01T10:09:29.167Z,155.37
2019-03-01T10:12:34.400Z,151.87
2019-03-01T10:15:39.789Z,141.93
2019-03-01T10:18:46.595Z,155.07
2019-03-01T10:21:53.467Z,258.53
2019-03-01T10:24:58.739Z,337.60
2019-03-01T10:28:04.103Z,167.67
2019-03-01T10:31:09.456Z,244.33
2019-03-01T10:34:14.744Z,219.47
2019-03-01T10:37:31.589Z,173.10
2019-03-01T10:40:36.927Z,314.47
2019-03-01T10:43:42.238Z,226.27
2019-03-01T10:46:47.485Z,141.77
2019-03-01T10:49:54.367Z,126.57
2019-03-01T10:52:59.625Z,141.60
2019-03-01T10:56:04.971Z,132.70
2019-03-01T10:59:10.268Z,131.33
2019-03-01T11:02:15.543Z,128.43
2019-03-01T11:05:20.957Z,116.70
2019-03-01T11:08:26.231Z,114.93
2019-03-01T11:11:31.506Z,117.93
2019-03-01T11:14:36.800Z,98.67
2019-03-01T11:17:42.134Z,109.10
2019-03-01T11:20:47.480Z,108.33
2019-03-01T11:23:52.739Z,104.23
2019-03-01T11:26:58.099Z,93.10
2019-03-01T11:30:03.456Z,93.70
2019-03-01T11:33:08.834Z,85.87
2019-03-01T11:36:14.098Z,87.73
2019-03-01T11:39:19.755Z,79.07
2019-03-01T11:42:25.067Z,67.07
2019-03-01T11:45:30.418Z,48.33
2019-03-01T11:48:35.661Z,48.23
2019-03-01T11:51:40.997Z,51.30
2019-03-01T11:54:58.471Z,46.33
2019-03-01T11:58:03.778Z,46.67
2019-03-01T12:01:16.930Z,44.47
2019-03-01T12:04:16.230Z,42.73
2019-03-01T12:07:21.585Z,45.80
2019-03-01T12:10:27.035Z,40.40
2019-03-01T12:13:33.500Z,40.27
2019-03-01T12:16:38.766Z,55.27
2019-03-01T12:19:44.120Z,58.83
2019-03-01T12:22:51.857Z,70.07
2019-03-01T12:25:57.241Z,50.90
2019-03-01T12:29:21.538Z,64.33
2019-03-01T12:32:26.796Z,54.00
2019-03-01T12:35:32.146Z,56.67
2019-03-01T12:38:37.405Z,53.17
2019-03-01T12:41:42.710Z,55.07
2019-03-01T12:44:48.027Z,50.07
2019-03-01T12:47:53.318Z,46.93
2019-03-01T12:50:58.635Z,47.67
2019-03-01T12:54:03.893Z,48.03
2019-03-01T12:57:09.179Z,45.67
2019-03-01T13:00:17.011Z,45.67
2019-03-01T13:03:22.246Z,44.80
2019-03-01T13:06:27.688Z,42.20
2019-03-01T13:09:33.103Z,48.83
2019-03-01T13:12:38.420Z,41.50
2019-03-01T13:15:45.439Z,51.47
2019-03-01T13:18:52.363Z,41.07
2019-03-01T13:21:58.765Z,45.00
2019-03-01T13:25:04.070Z,40.70
2019-03-01T13:28:09.321Z,35.17
2019-03-01T13:31:17.608Z,47.27
2019-03-01T13:34:22.898Z,48.83
2019-03-01T13:37:28.196Z,44.20
2019-03-01T13:40:33.477Z,51.70
2019-03-01T13:43:38.836Z,46.90
2019-03-01T13:46:44.074Z,51.07
2019-03-01T13:49:49.396Z,39.93
2019-03-01T13:52:54.739Z,39.00
2019-03-01T13:56:01.112Z,36.07
2019-03-01T13:59:06.588Z,45.77
2019-03-01T14:02:11.951Z,37.37
2019-03-01T14:05:17.642Z,38.43
2019-03-01T14:08:23.044Z,45.13
2019-03-01T14:11:30.345Z,36.77
2019-03-01T14:14:35.874Z,30.87
2019-03-01T14:17:41.184Z,34.43
2019-03-01T14:20:46.442Z,25.33
2019-03-01T14:23:51.762Z,25.50
2019-03-01T14:26:59.067Z,23.53
2019-03-01T14:30:04.032Z,22.57
2019-03-01T14:33:09.361Z,19.87
2019-03-01T14:36:14.712Z,26.40
2019-03-01T14:39:19.977Z,30.40
2019-03-01T14:42:25.231Z,20.03
2019-03-01T14:45:30.602Z,22.73
2019-03-01T14:48:35.963Z,16.33
2019-03-01T14:51:46.509Z,21.60
2019-03-01T14:54:49.340Z,19.13
2019-03-01T14:58:13.326Z,14.63
2019-03-01T15:01:49.017Z,29.23
2019-03-01T15:04:54.447Z,22.07
2019-03-01T15:07:59.709Z,25.00
2019-03-01T15:11:10.835Z,20.23
2019-03-01T15:14:16.105Z,21.63
2019-03-01T15:17:22.576Z,26.10
2019-03-01T15:20:28.056Z,18.67
2019-03-01T15:23:33.410Z,28.70
2019-03-01T15:26:40.312Z,24.00
2019-03-01T15:29:45.560Z,18.40
2019-03-01T15:32:52.456Z,21.90
2019-03-01T15:35:57.949Z,19.53
2019-03-01T15:39:05.739Z,16.00
2019-03-01T15:42:14.384Z,23.77
2019-03-01T15:45:18.704Z,16.23
2019-03-01T15:48:23.964Z,18.20
2019-03-01T15:51:29.274Z,14.20
2019-03-01T15:54:35.755Z,14.00
2019-03-01T15:57:41.744Z,13.10
2019-03-01T16:00:48.951Z,15.37
2019-03-01T16:03:57.137Z,12.97
2019-03-01T16:07:01.210Z,16.23
2019-03-01T16:10:07.714Z,12.03
2019-03-01T16:13:13.337Z,17.10
2019-03-01T16:16:18.772Z,15.60
2019-03-01T16:19:24.039Z,9.57
2019-03-01T16:22:29.295Z,15.70
2019-03-01T16:25:34.662Z,11.77
2019-03-01T16:28:39.983Z,11.40
2019-03-01T16:31:45.260Z,11.40
2019-03-01T16:34:50.536Z,8.87
2019-03-01T16:37:57.886Z,14.30
2019-03-01T16:41:07.540Z,10.77
2019-03-01T16:44:10.384Z,10.00
2019-03-01T16:47:15.629Z,12.23
2019-03-01T16:50:21.214Z,13.93
2019-03-01T16:53:28.809Z,16.77
2019-03-01T16:56:34.578Z,15.73
2019-03-01T16:59:42.821Z,11.20
2019-03-01T17:02:49.065Z,14.83
2019-03-01T17:05:55.142Z,13.23
2019-03-01T17:09:01.645Z,18.23
2019-03-01T17:12:08.623Z,20.90
2019-03-01T17:15:18.361Z,13.23
2019-03-01T17:18:23.400Z,16.27
2019-03-01T17:21:33.739Z,13.10
2019-03-01T17:24:39.131Z,12.40
2019-03-01T17:27:44.561Z,12.10
2019-03-01T17:30:50.601Z,14.60
2019-03-01T17:33:57.997Z,12.70
2019-03-01T17:37:03.454Z,12.80
2019-03-01T17:40:10.389Z,11.60
2019-03-01T17:43:15.653Z,12.83
2019-03-01T17:46:20.936Z,13.13
2019-03-01T17:49:29.670Z,11.03
2019-03-01T17:52:33.681Z,11.60
2019-03-01T17:55:41.754Z,10.10
2019-03-01T17:58:47.063Z,16.00
2019-03-01T18:01:52.416Z,11.13
2019-03-01T18:04:57.777Z,8.50
2019-03-01T18:08:04.957Z,9.93
2019-03-01T18:11:10.478Z,8.43
2019-03-01T18:14:15.738Z,11.80
2019-03-01T18:17:21.001Z,17.70
2019-03-01T18:20:26.274Z,15.77
2019-03-01T18:23:34.270Z,19.20
2019-03-01T18:26:39.978Z,16.00
2019-03-01T18:29:45.708Z,17.23
2019-03-01T18:32:51.106Z,14.13
2019-03-01T18:35:59.130Z,18.33
2019-03-01T18:39:06.992Z,11.60
2019-03-01T18:42:13.268Z,26.80
2019-03-01T18:45:18.790Z,11.70
2019-03-01T18:48:24.170Z,15.47
2019-03-01T18:51:29.516Z,13.67
2019-03-01T18:54:35.906Z,13.30
2019-03-01T18:57:42.032Z,10.77
2019-03-01T19:00:47.560Z,14.80
2019-03-01T19:03:52.939Z,10.23
2019-03-01T19:06:58.339Z,10.30
2019-03-01T19:10:06.761Z,11.67
2019-03-01T19:13:13.294Z,9.07
2019-03-01T19:16:18.745Z,13.47
2019-03-01T19:19:29.901Z,9.07
2019-03-01T19:22:31.242Z,10.77
2019-03-01T19:25:36.599Z,13.37
2019-03-01T19:28:42.895Z,10.43
2019-03-01T19:31:48.286Z,9.43
2019-03-01T19:34:53.793Z,16.10
2019-03-01T19:37:59.214Z,16.60
2019-03-01T19:41:04.718Z,10.70
2019-03-01T19:44:10.044Z,15.43
2019-03-01T19:47:15.339Z,7.97
2019-03-01T19:50:21.814Z,10.57
2019-03-01T19:53:27.734Z,23.17
2019-03-01T19:56:33.099Z,13.70
2019-03-01T19:59:38.450Z,10.33
2019-03-01T20:02:43.874Z,18.57
2019-03-01T20:05:49.233Z,19.13
2019-03-01T20:08:54.594Z,12.57
2019-03-01T20:12:02.755Z,14.40
2019-03-01T20:15:10.571Z,17.43
2019-03-01T20:18:15.953Z,18.43
2019-03-01T20:21:21.341Z,12.90
2019-03-01T20:24:27.769Z,11.87
2019-03-01T20:27:35.576Z,13.13
2019-03-01T20:30:39.974Z,15.20
2019-03-01T20:33:45.434Z,17.43
2019-03-01T20:36:52.966Z,14.70
2019-03-01T20:39:57.900Z,15.63
2019-03-01T20:43:07.177Z,14.73
2019-03-01T20:46:13.511Z,15.63
2019-03-01T20:49:18.785Z,11.07
2019-03-01T20:52:24.103Z,13.37
2019-03-01T20:55:29.435Z,15.70
2019-03-01T20:58:35.877Z,20.97
2019-03-01T21:01:42.028Z,20.77
2019-03-01T21:04:53.311Z,15.30
2019-03-01T21:07:54.891Z,18.40
2019-03-01T21:11:00.533Z,13.77
2019-03-01T21:14:07.401Z,15.37
2019-03-01T21:17:12.790Z,20.00
2019-03-01T21:20:19.568Z,19.13
2019-03-01T21:23:25.225Z,20.17
2019-03-01T21:26:31.398Z,18.67
2019-03-01T21:29:36.686Z,18.13
2019-03-01T21:32:41.992Z,19.00
2019-03-01T21:35:47.806Z,18.20
2019-03-01T21:38:54.444Z,18.33
2019-03-01T21:41:59.780Z,15.67
2019-03-01T21:45:05.629Z,19.50
2019-03-01T21:48:11.000Z,18.17
2019-03-01T21:51:18.421Z,15.27
2019-03-01T21:54:23.194Z,16.33
2019-03-01T21:57:31.177Z,15.00
2019-03-01T22:00:35.548Z,16.70
2019-03-01T22:03:43.045Z,16.17
2019-03-01T22:06:48.324Z,10.83
2019-03-01T22:09:56.759Z,18.23
2019-03-01T22:13:01.426Z,14.77
2019-03-01T22:16:06.788Z,10.63
2019-03-01T22:19:12.193Z,13.80
2019-03-01T22:22:18.585Z,14.97
2019-03-01T22:25:23.864Z,13.57
2019-03-01T22:28:32.704Z,10.20
2019-03-01T22:31:37.245Z,17.83
2019-03-01T22:34:42.619Z,10.43
2019-03-01T22:37:48.037Z,12.73
2019-03-01T22:40:53.357Z,13.70
2019-03-01T22:44:01.724Z,13.27
2019-03-01T22:47:05.662Z,17.53
2019-03-01T22:50:13.909Z,10.97
2019-03-01T22:53:19.217Z,12.13
2019-03-01T22:56:24.612Z,15.23
2019-03-01T22:59:30.097Z,13.57
2019-03-01T23:02:35.783Z,11.10
2019-03-01T23:05:41.021Z,12.10
2019-03-01T23:08:46.323Z,13.27
2019-03-01T23:11:51.577Z,11.20
2019-03-01T23:14:56.940Z,16.27
2019-03-01T23:18:05.641Z,15.33
2019-03-01T23:21:09.176Z,16.67
2019-03-01T23:24:14.510Z,10.80
2019-03-01T23:27:19.864Z,10.93
2019-03-01T23:30:25.745Z,12.03
2019-03-01T23:33:32.724Z,12.57
2019-03-01T23:36:38.169Z,13.07
2019-03-01T23:39:43.427Z,12.07
2019-03-01T23:42:48.697Z,14.60
2019-03-01T23:45:55.220Z,14.23
2019-03-01T23:49:06.188Z,12.97
2019-03-01T23:52:07.698Z,15.67
2019-03-01T23:55:15.665Z,14.70
2019-03-01T23:58:20.121Z,12.30
